Tiempo atmosférico en la estación meteorológica de El Bodón Base Aérea, Salamanca (805 m.)



Fecha
DESCASC
Temp. máxima en grados centígrados (hora)
DESCASC
Temp. mínima en grados centígrados (hora)
DESCASC
Temp. media en grados centígrados
DESCASC
Racha de viento máxima en m/sg (hora)
DESCASC
Velocidad máxima media en intervalos de 10 minutos(hora)
DESCASC
Precipitaciones diarias en mm
DESCASC
Precipitaciones de 00:00 a 06:00 en mm
DESCASC
Precipitaciones de 06:00 a 12:00 en mm
DESCASC
Precipitaciones de 12:00 a 18:00 en mm
DESCASC
Precipitaciones de 18:00 a 24:00 en mm
DESCASC
18-02-2018 11.5 (16:50) -1.3 (08:10) 5.1 11.94 (13:10) 7.22 (17:20) 0 0 0 0 0
17-02-2018 12.2 (17:10) 1.8 (02:50) 7 8.89 (17:20) 5.28 (17:20) 0 0 0 0 0
16-02-2018 11.7 (14:10) 3.8 (23:59) 7.7 6.39 (12:10) 4.17 (11:40) 0 0 0 0 0
15-02-2018 12.8 (15:10) 7.3 (00:00) 10.1 8.33 (13:30) 5.83 (13:00) 0 0 0 0 0
14-02-2018 8.9 (17:10) 4.8 (00:00) 6.8 9.44 (11:50) 6.67 (11:50) 0 0 0 0 0
13-02-2018 8.9 (16:10) -4.6 (-00:0) 2.1 12.78 (15:50) 8.61 (12:50) 0 0 0 0 0
12-02-2018 7.5 (16:40) -0.6 (-00:0) 3.4 9.17 (15:40) 6.11 (14:20) 0.2 0.2 0 0 0
11-02-2018 11.4 (13:50) 3.7 (00:00) 7.5 9.72 (17:00) 6.39 (15:30) 0.4 0 0 0 0.4
10-02-2018 7.7 (16:50) -1.8 (-00:0) 2.9 7.78 (15:00) 5.28 (17:20) 0 0 0 0 0
09-02-2018 5.8 (17:00) -3.3 (-00:0) 1.3 5 (12:50) 3.33 (12:50) 2.6 1 1.6 0 0
08-02-2018 4.3 (16:20) -5.6 (-00:0) -0.6 8.06 (14:00) 5 (13:00) 0 0 0 0 0
07-02-2018 3.8 (14:20) -4.7 (-00:0) -0.4 10.28 (16:00) 6.11 (16:00) 0 0 0 0 0
06-02-2018 3.5 (15:30) -3.7 (-00:0) -0.1 11.67 (12:40) 7.5 (13:50) 0 0 0 0 0
05-02-2018 4.9 (15:20) -1.8 (-00:0) 1.6 14.72 (14:30) 8.61 (14:20) 0 0 0 0 0
04-02-2018 5.1 (16:00) -1.3 (-00:0) 1.9 12.78 (02:30) 8.33 (02:30) 0.8 0.8 0 0 0
03-02-2018 7.5 (16:20) -4.5 (-00:0) 1.5 9.44 (22:50) 6.39 (22:40) 2 0 0 0 2
02-02-2018 5.8 (16:40) -3 (-00:0) 1.4 8.89 (17:50) 5.83 (17:50) 0 0 0 0 0
01-02-2018 7.6 (14:40) -0.5 (-00:0) 3.5 14.17 (17:20) 10 (14:50) 0 0 0 0 0
31-01-2018 13.4 (16:50) -2.8 (-00:0) 5.3 5.28 (11:50) 3.89 (04:00) 0 0 0 0 0
30-01-2018 12.8 (17:30) -2.5 (-00:0) 5.2 5 (08:50) 3.89 (02:20) 0 0 0 0 0
29-01-2018 13.3 (16:20) -2.1 (-00:0) 5.6 6.39 (17:30) 3.89 (00:40) 0 0 0 0 0
28-01-2018 10.2 (16:10) -1.6 (-00:0) 4.3 13.33 (15:50) 8.06 (15:20) 0 0 0 0 0
27-01-2018 8.1 (16:40) -1.1 (-00:0) 3.5 10.83 (23:59) 6.39 (23:59) 0 0 0 0 0
26-01-2018 6.7 (15:50) -0.2 (00:00) 3.2 12.78 (11:30) 9.17 (12:30) 0 0 0 0 0
25-01-2018 6.7 (16:10) 0.9 (00:00) 3.8 11.94 (16:20) 8.06 (16:20) 4.2 0 3 1 0.2
24-01-2018 5 (17:30) 0.6 (00:00) 2.8 4.17 (23:50) 3.33 (23:50) 0 0 0 0 0
23-01-2018 5.2 (00:00) -0.8 (-00:0) 2.2 4.72 (17:10) 3.06 (01:20) 0 0 0 0 0
22-01-2018 11.6 (17:10) 3.7 (00:00) 7.7 5 (12:50) 2.78 (10:50) 0 0 0 0 0

Gráficas

Temp. máximas Temp. mínimas Temp. medias Precipitaciones Rachas de viento máximas Velocidades máximas media en intervalos de 10 minutos

Datos horarios

Fecha y hora oficial Temperatura (ºC) Velocidad del viento (km/h) Dirección del viento Racha (km/h) Dirección de racha Precipitación (mm) Presión (hPa) Tendencia (hPa) Humedad (%)
2018-02-20 23:00:00 5.1 10 Norte 15 Norte 0 -- -- 76
2018-02-20 22:00:00 6.1 6 Norte 22 Nordeste 0 -- -- 71
2018-02-20 21:00:00 7.3 10 Nordeste 22 Nordeste 0 -- -- 67
2018-02-20 20:00:00 8.5 13 Nordeste 27 Nordeste 0 -- -- 63
2018-02-20 19:00:00 9.9 14 Nordeste 37 Nordeste 0 -- -- 59
2018-02-20 18:00:00 11.1 24 Nordeste 38 Nordeste 0 -- -- 57
2018-02-20 17:00:00 11.9 21 Nordeste 39 Norte 0 -- -- 57
2018-02-20 16:00:00 12.2 23 Norte 42 Nordeste 0 -- -- 52
2018-02-20 15:00:00 12.3 22 Nordeste 37 Nordeste 0 -- -- 50
2018-02-20 14:00:00 11.6 22 Nordeste 37 Nordeste 0 -- -- 55
2018-02-20 13:00:00 10.8 19 Nordeste 33 Este 0 -- -- 60
2018-02-20 12:00:00 9.6 17 Nordeste 30 Norte 0 -- -- 65
2018-02-20 11:00:00 6.5 12 Norte 20 Nordeste 0 -- -- 83
2018-02-20 10:00:00 5.4 8 Nordeste 15 Nordeste 0 -- -- 91
2018-02-20 09:00:00 2.3 8 Norte 15 Nordeste 0 -- -- 93
2018-02-20 08:00:00 1.9 4 Norte 11 Norte 0 -- -- 91
2018-02-20 07:00:00 2.5 9 Norte 11 Norte 0 -- -- 90
2018-02-20 06:00:00 2.6 6 Norte 8 Norte 0 -- -- 90
2018-02-20 05:00:00 2.9 4 Norte 11 Norte 0 -- -- 89
2018-02-20 04:00:00 3.3 7 Norte 15 Nordeste 0 -- -- 87
2018-02-20 03:00:00 3.5 8 Nordeste 10 Nordeste 0 -- -- 88
2018-02-20 02:00:00 3.7 3 Noroeste 6 Noroeste 0 -- -- 86
2018-02-20 01:00:00 4.3 3 Noroeste 12 Norte 0 -- -- 83
2018-02-20 00:00:00 5.2 8 Nordeste 13 Nordeste 0 -- -- 81
2018-02-19 23:00:00 5.3 4 Norte 9 Nordeste 0 -- -- 79
2018-02-19 22:00:00 6.2 9 Este 11 Este 0 -- -- 75
2018-02-19 21:00:00 7.3 9 Norte 19 Nordeste 0 -- -- 72
2018-02-19 20:00:00 8.4 13 Nordeste 21 Nordeste 0 -- -- 68
2018-02-19 19:00:00 9.1 10 Nordeste 21 Nordeste 0 -- -- 66
2018-02-19 18:00:00 10.5 15 Nordeste 30 Norte 0 -- -- 61
2018-02-19 17:00:00 11.4 17 Nordeste 35 Norte 0 -- -- 60
2018-02-19 16:00:00 10.9 19 Norte 32 Norte 0 -- -- 59
2018-02-19 15:00:00 10.9 15 Nordeste 32 Norte 0 -- -- 60
2018-02-19 14:00:00 10.5 17 Norte 30 Nordeste 0 -- -- 61
2018-02-19 13:00:00 10 16 Norte 24 Norte 0 -- -- 60
2018-02-19 12:00:00 8.9 10 Nordeste 20 Nordeste 0 -- -- 67
2018-02-19 11:00:00 7.3 8 Nordeste 14 Nordeste 0 -- -- 75
2018-02-19 10:00:00 4.5 5 Norte 10 Norte 0 -- -- 88
2018-02-19 09:00:00 2.8 5 Norte 8 Norte 0 -- -- 89
2018-02-19 08:00:00 3 4 Norte 8 Norte 0 -- -- 88
2018-02-19 07:00:00 3.4 4 Norte 9 Nordeste 0 -- -- 87
2018-02-19 06:00:00 3.9 6 Norte 12 Noroeste 0 -- -- 86
2018-02-19 05:00:00 4.8 5 Norte 19 Norte 0 -- -- 84
2018-02-19 04:00:00 5.1 4 Nordeste 8 Este 0 -- -- 83
2018-02-19 03:00:00 5 2 Noroeste 10 Norte 0 -- -- 83
2018-02-19 02:00:00 5.1 8 Norte 14 Norte 0 -- -- 83
2018-02-19 01:00:00 5.2 8 Norte 14 Norte 0 -- -- 82
2018-02-19 00:00:00 5.8 9 Norte 15 Norte 0 -- -- 78
2018-02-18 23:00:00 6.2 8 Norte 14 Norte 0 -- -- 75
2018-02-18 22:00:00 6.4 9 Norte 14 Nordeste 0 -- -- 74
2018-02-18 21:00:00 7.4 12 Nordeste 22 Nordeste 0 -- -- 69
2018-02-18 20:00:00 7.1 13 Nordeste 20 Nordeste 0 -- -- 70
2018-02-18 19:00:00 8.4 11 Nordeste 32 Nordeste 0 -- -- 65
2018-02-18 18:00:00 9.9 21 Nordeste 40 Nordeste 0 -- -- 59
2018-02-18 17:00:00 11.2 19 Nordeste 37 Nordeste 0 -- -- 53
2018-02-18 16:00:00 11 21 Nordeste 41 Nordeste 0 -- -- 53
2018-02-18 15:00:00 10.3 21 Nordeste 39 Nordeste 0 -- -- 54
2018-02-18 14:00:00 9.7 21 Nordeste 43 Nordeste 0 -- -- 50
2018-02-18 13:00:00 8.9 19 Nordeste 37 Nordeste 0 -- -- 50
2018-02-18 12:00:00 7.5 23 Nordeste 35 Nordeste 0 -- -- 53
2018-02-18 11:00:00 3.9 11 Norte 21 Norte 0 -- -- 78
2018-02-18 10:00:00 1.4 11 Norte 17 Norte 0 -- -- 89
2018-02-18 09:00:00 -1 9 Norte 17 Norte 0 -- -- 92
2018-02-18 08:00:00 -1.1 9 Norte 18 Nordeste 0 -- -- 91
2018-02-18 07:00:00 -0.2 13 Nordeste 20 Norte 0 -- -- 91
2018-02-18 06:00:00 0.3 9 Norte 13 Norte 0 -- -- 88
2018-02-18 05:00:00 1.4 10 Nordeste 17 Nordeste 0 -- -- 85
2018-02-18 04:00:00 1.8 10 Norte 15 Norte 0 -- -- 86
2018-02-18 03:00:00 1.9 10 Norte 26 Este 0 -- -- 86
2018-02-18 02:00:00 2.2 7 Norte 17 Norte 0 -- -- 89
2018-02-18 01:00:00 3.3 12 Norte 17 Nordeste 0 -- -- 84
2018-02-18 00:00:00 4.8 6 Nordeste 17 Nordeste 0 -- -- 76
2018-02-17 23:00:00 5.1 10 Nordeste 16 Nordeste 0 -- -- 78
2018-02-17 22:00:00 5.3 8 Norte 24 Nordeste 0 -- -- 84
2018-02-17 21:00:00 6.8 16 Nordeste 27 Nordeste 0 -- -- 79
2018-02-17 20:00:00 7.7 11 Nordeste 19 Nordeste 0 -- -- 73
2018-02-17 19:00:00 9.3 13 Nordeste 30 Nordeste 0 -- -- 69
2018-02-17 18:00:00 10.5 11 Nordeste 32 Nordeste 0 -- -- 64
2018-02-17 17:00:00 11.9 14 Nordeste 28 Norte 0 -- -- 59
2018-02-17 16:00:00 11.4 14 Nordeste 27 Norte 0 -- -- 68
2018-02-17 15:00:00 10.6 11 Norte 24 Nordeste 0 -- -- 75
2018-02-17 14:00:00 9.1 10 Norte 18 Norte 0 -- -- 93
2018-02-17 13:00:00 7.7 10 Norte 18 Norte 0 -- -- 99
2018-02-17 12:00:00 6.6 6 Norte 9 Norte 0 -- -- 100
2018-02-17 11:00:00 6.1 4 Norte 8 Norte 0 -- -- 99
2018-02-17 10:00:00 5.6 5 Norte 13 Norte 0 -- -- 99
2018-02-17 09:00:00 5.5 7 Norte 12 Norte 0 -- -- 99
2018-02-17 08:00:00 4.8 0 Calma 4 Sur 0 -- -- 99
2018-02-17 07:00:00 4 0 Calma 5 Sur 0 -- -- 99
2018-02-17 06:00:00 3.4 6 Sur 9 Sur 0 -- -- 98
2018-02-17 05:00:00 3 6 Sur 8 Sur 0 -- -- 97
2018-02-17 04:00:00 2.7 2 Sur 7 Sur 0 -- -- 97
2018-02-17 03:00:00 1.8 8 Sur 10 Sur 0 -- -- 96
2018-02-17 02:00:00 3 0 Calma 9 Sur 0 -- -- 96
2018-02-17 01:00:00 3 9 Sur 14 Sur 0 -- -- 96
2018-02-17 00:00:00 3.8 9 Sur 12 Sur 0 -- -- 94
2018-02-16 23:00:00 4 10 Sur 15 Sur 0 -- -- 93
2018-02-16 22:00:00 5.8 0 Calma 8 Este 0 -- -- 89
2018-02-16 21:00:00 6.3 0 Calma 9 Sudeste 0 -- -- 85
2018-02-16 20:00:00 7.8 2 Este 6 Sudeste 0 -- -- 81
2018-02-16 19:00:00 10.2 3 Sudeste 13 Sudeste 0 -- -- 75
2018-02-16 18:00:00 10.4 9 Sur 15 Sur 0 -- -- 78
2018-02-16 17:00:00 10.4 11 Sur 19 Sur 0 -- -- 81
2018-02-16 16:00:00 10.5 15 Sudoeste 22 Sur 0 -- -- 82
2018-02-16 15:00:00 11.7 11 Sur 23 Sur 0 -- -- 78
2018-02-16 14:00:00 11.6 13 Sur 22 Sur 0 -- -- 78
2018-02-16 13:00:00 11.2 13 Sur 23 Sudeste 0 -- -- 82
2018-02-16 12:00:00 10.7 14 Sur 22 Sur 0 -- -- 82
2018-02-16 11:00:00 9.8 8 Sur 14 Sur 0 -- -- 89
2018-02-16 10:00:00 8.4 3 Sudoeste 8 Sur 0 -- -- 97
2018-02-16 09:00:00 7.1 3 Sudeste 8 Este 0 -- -- 97
2018-02-16 08:00:00 6.3 3 Nordeste 8 Sur 0 -- -- 97
2018-02-16 07:00:00 6.7 7 Sur 12 Sur 0 -- -- 96
2018-02-16 06:00:00 7.1 9 Sur 12 Sur 0 -- -- 97
2018-02-16 05:00:00 6.5 5 Sur 9 Sudeste 0 -- -- 96
2018-02-16 04:00:00 6.3 4 Norte 10 Sudeste 0 -- -- 95
2018-02-16 03:00:00 7.2 4 Sur 13 Sur 0 -- -- 94
2018-02-16 02:00:00 7.9 9 Sur 14 Sur 0 -- -- 95
2018-02-16 01:00:00 7.8 8 Sur 10 Sur 0 -- -- 95
2018-02-16 00:00:00 8 7 Sur 14 Sur 0 -- -- 93
2018-02-15 23:00:00 9 10 Sur 17 Sur 0 -- -- 91
2018-02-15 22:00:00 9.5 7 Sur 13 Sur 0 -- -- 92
2018-02-15 21:00:00 9.7 6 Sudeste 13 Sur 0 -- -- 91
2018-02-15 20:00:00 9.8 7 Sur 15 Sur 0 -- -- 93
2018-02-15 19:00:00 10 10 Sur 21 Sur 0 -- -- 92
2018-02-15 18:00:00 10.7 14 Sur 24 Sur 0 -- -- 88
2018-02-15 17:00:00 10.8 16 Sur 27 Sur 0 -- -- 86
2018-02-15 16:00:00 12 17 Sur 29 Sur 0 -- -- 81
2018-02-15 15:00:00 12.6 18 Sur 29 Sur 0 -- -- 78
2018-02-15 14:00:00 11.9 19 Sur 30 Sur 0 -- -- 80
2018-02-15 13:00:00 11.9 21 Sur 29 Sur 0 -- -- 80
2018-02-15 12:00:00 11.2 18 Sur 27 Sur 0 -- -- 83
2018-02-15 11:00:00 10.3 18 Sur 26 Sur 0 -- -- 87
2018-02-15 10:00:00 8.9 19 Sur 25 Sur 0 -- -- 96
2018-02-15 09:00:00 7.4 10 Sur 21 Sur 0 -- -- 97
2018-02-15 08:00:00 7.5 11 Sur 17 Sur 0 -- -- 97
2018-02-15 07:00:00 7.8 10 Sur 15 Sudeste 0 -- -- 97
2018-02-15 06:00:00 7.8 10 Sur 17 Sudeste 0 -- -- 98
2018-02-15 05:00:00 7.7 6 Sudeste 17 Sur 0 -- -- 97
2018-02-15 04:00:00 7.9 10 Sur 15 Sur 0 -- -- 97
2018-02-15 03:00:00 8 8 Sur 17 Sur 0 -- -- 96
2018-02-15 02:00:00 8.1 13 Sur 21 Sur 0 -- -- 95
2018-02-15 01:00:00 8 13 Sur 20 Sudoeste 0 -- -- 94
2018-02-15 00:00:00 8.1 16 Sur 25 Sur 0 -- -- 94
2018-02-14 23:00:00 7.8 12 Sur 23 Sudeste 0 -- -- 94
2018-02-14 22:00:00 7.7 13 Sur 25 Sur 0 -- -- 94
2018-02-14 21:00:00 7.8 20 Sur 27 Sur 0 -- -- 92
2018-02-14 20:00:00 8 15 Sur 23 Sur 0 -- -- 92
2018-02-14 19:00:00 8.5 17 Sur 28 Sudoeste 0 -- -- 89
2018-02-14 18:00:00 8.8 19 Sudoeste 29 Sur 0 -- -- 87
2018-02-14 17:00:00 8.7 20 Sur 30 Sur 0 -- -- 89
2018-02-14 16:00:00 8.3 16 Sur 32 Sudoeste 0 -- -- 92
2018-02-14 15:00:00 8.3 20 Sur 31 Sur 0 -- -- 95
2018-02-14 14:00:00 7.3 18 Sur 32 Sur 0 -- -- 94
2018-02-14 13:00:00 7.3 21 Sur 30 Sur 0 -- -- 91
2018-02-14 12:00:00 7.8 19 Sur 34 Sur 0 -- -- 90
2018-02-14 11:00:00 7.6 23 Sur 30 Sudoeste 0 -- -- 90
2018-02-14 10:00:00 6.9 17 Sur 27 Sur 0 -- -- 93
2018-02-14 09:00:00 6.2 17 Sur 27 Sur 0 -- -- 93
2018-02-14 08:00:00 6 16 Sur 23 Sur 0 -- -- 94
2018-02-14 07:00:00 5.8 11 Sur 21 Sur 0 -- -- 94
2018-02-14 06:00:00 5.8 12 Sudoeste 21 Sudoeste 0 -- -- 93
2018-02-14 05:00:00 5.6 10 Sur 17 Sur 0 -- -- 93
2018-02-14 04:00:00 5.6 15 Sur 23 Sur 0 -- -- 93
2018-02-14 03:00:00 5.2 10 Sur 17 Sur 0 -- -- 94
2018-02-14 02:00:00 5.2 11 Sur 18 Sur 0 -- -- 94
2018-02-14 01:00:00 5.1 15 Sur 22 Sur 0 -- -- 91
2018-02-14 00:00:00 5.2 12 Sur 19 Sur 0 -- -- 90
2018-02-13 23:00:00 5.9 11 Sur 15 Sur 0 -- -- 87
2018-02-13 22:00:00 6.4 8 Sur 20 Sudoeste 0 -- -- 84
2018-02-13 21:00:00 6.4 13 Sudoeste 20 Sudoeste 0 -- -- 87
2018-02-13 20:00:00 6.8 10 Sudoeste 22 Sudoeste 0 -- -- 84
2018-02-13 19:00:00 6.6 8 Sudeste 35 Oeste 0 -- -- 82
2018-02-13 18:00:00 7.5 23 Oeste 38 Sudoeste 0 -- -- 77
2018-02-13 17:00:00 8 17 Sudoeste 32 Oeste 0 -- -- 75
2018-02-13 16:00:00 8.5 17 Oeste 46 Sudoeste 0 -- -- 72
2018-02-13 15:00:00 8 26 Sudoeste 39 Sudoeste 0 -- -- 71
2018-02-13 14:00:00 7.3 21 Sudoeste 40 Oeste 0 -- -- 72
2018-02-13 13:00:00 7.8 27 Oeste 43 Sudoeste 0 -- -- 70
2018-02-13 12:00:00 7 19 Sudoeste 30 Sudoeste 0 -- -- 63
2018-02-13 11:00:00 3.3 13 Sudeste 22 Sudeste 0 -- -- 75
2018-02-13 10:00:00 -1.4 10 Sur 21 Sudeste 0 -- -- 92
2018-02-13 09:00:00 -3.8 11 Sudeste 16 Sudeste 0 -- -- 93
2018-02-13 08:00:00 -4 11 Sudeste 14 Sudeste 0 -- -- 91
2018-02-13 07:00:00 -3.6 10 Sudeste 13 Sudeste 0 -- -- 91
2018-02-13 06:00:00 -3.8 10 Sur 13 Sur 0 -- -- 90
2018-02-13 05:00:00 -2.6 9 Sur 11 Sur 0 -- -- 89
2018-02-13 04:00:00 -3 8 Sur 13 Sur 0 -- -- 89
2018-02-13 03:00:00 -2.1 9 Sudeste 13 Sudeste 0 -- -- 86
2018-02-13 02:00:00 -1.1 4 Sudoeste 14 Sur 0 -- -- 84
2018-02-13 01:00:00 -0.9 8 Sur 11 Sur 0 -- -- 81
2018-02-13 00:00:00 0.6 0 Calma 13 Sudoeste 0 -- -- 76
2018-02-12 23:00:00 1.9 8 Noroeste 14 Noroeste 0 -- -- 70
2018-02-12 22:00:00 2.2 10 Noroeste 14 Noroeste 0 -- -- 69
2018-02-12 21:00:00 2.1 0 Calma 6 Norte 0 -- -- 66
2018-02-12 20:00:00 2.7 3 Norte 8 Nordeste 0 -- -- 63
2018-02-12 19:00:00 5 5 Norte 16 Norte 0 -- -- 52
2018-02-12 18:00:00 6.7 14 Noroeste 27 Norte 0 -- -- 46
2018-02-12 17:00:00 7.1 18 Norte 27 Norte 0 -- -- 45
2018-02-12 16:00:00 7.3 19 Norte 33 Noroeste 0 -- -- 39
2018-02-12 15:00:00 7.2 19 Norte 29 Norte 0 -- -- 46
2018-02-12 14:00:00 6.5 15 Noroeste 27 Nordeste 0 -- -- 56
2018-02-12 13:00:00 5.6 15 Norte 26 Norte 0 -- -- 62
2018-02-12 12:00:00 4.2 15 Norte 29 Noroeste 0 -- -- 73
2018-02-12 11:00:00 2.4 21 Norte 30 Noroeste 0 -- -- 91
2018-02-12 10:00:00 0.7 9 Norte 13 Norte 0 -- -- 96
2018-02-12 09:00:00 -0.6 10 Norte 13 Noroeste 0 -- -- 95
2018-02-12 08:00:00 0.1 7 Norte 15 Norte 0 -- -- 93
2018-02-12 07:00:00 0.7 6 Norte 12 Noroeste 0 -- -- 92
2018-02-12 06:00:00 1.6 9 Norte 24 Norte 0 -- -- 92
2018-02-12 05:00:00 3.3 17 Noroeste 24 Noroeste 0 -- -- 97
2018-02-12 04:00:00 4.1 11 Noroeste 19 Noroeste 0 -- -- 97
2018-02-12 03:00:00 4.7 15 Noroeste 22 Noroeste 0 -- -- 97
2018-02-12 02:00:00 5.3 14 Norte 21 Norte 0.2 -- -- 97
2018-02-12 01:00:00 5.5 14 Norte 27 Norte 0 -- -- 96
2018-02-12 00:00:00 7.4 15 Noroeste 23 Norte 0.4 -- -- 92
2018-02-11 23:00:00 7.7 9 Noroeste 19 Oeste 0 -- -- 87
2018-02-11 22:00:00 8.1 10 Oeste 26 Oeste 0 -- -- 86
2018-02-11 21:00:00 8.1 12 Oeste 21 Oeste 0 -- -- 87
2018-02-11 20:00:00 8.6 18 Oeste 30 Noroeste 0 -- -- 83
2018-02-11 19:00:00 9.1 22 Oeste 32 Noroeste 0 -- -- 80
2018-02-11 18:00:00 9.9 20 Oeste 31 Oeste 0 -- -- 82
2018-02-11 17:00:00 10.4 22 Oeste 35 Oeste 0 -- -- 80
2018-02-11 16:00:00 11.1 22 Oeste 32 Oeste 0 -- -- 76
2018-02-11 15:00:00 11.4 20 Noroeste 28 Noroeste 0 -- -- 76
2018-02-11 14:00:00 11.1 12 Noroeste 19 Norte 0 -- -- 82
2018-02-11 13:00:00 9.3 12 Oeste 22 Oeste 0 -- -- 91
2018-02-11 12:00:00 7.9 13 Oeste 24 Oeste 0 -- -- 95
2018-02-11 11:00:00 7.1 5 Oeste 11 Sudeste 0 -- -- 95
2018-02-11 10:00:00 5.5 6 Sur 16 Sur 0 -- -- 95
2018-02-11 09:00:00 5.3 2 Sur 9 Sudeste 0 -- -- 95
2018-02-11 08:00:00 4.5 3 Sur 10 Sudeste 0 -- -- 93
2018-02-11 07:00:00 4.4 6 Sudeste 9 Sur 0 -- -- 92
2018-02-11 06:00:00 4.7 0 Calma 5 Nordeste 0 -- -- 90
2018-02-11 05:00:00 4.7 3 Sudeste 5 Sudeste 0 -- -- 89
2018-02-11 04:00:00 4.7 2 Sudoeste 10 Noroeste 0 -- -- 87
2018-02-11 03:00:00 4.5 5 Noroeste 10 Oeste 0 -- -- 86
2018-02-11 02:00:00 4.2 5 Oeste 10 Oeste 0 -- -- 87
2018-02-11 01:00:00 3.8 8 Noroeste 10 Noroeste 0 -- -- 88
2018-02-11 00:00:00 4 9 Norte 17 Norte 0 -- -- 86
2018-02-10 23:00:00 4.1 15 Norte 22 Norte 0 -- -- 85
2018-02-10 22:00:00 3.6 8 Noroeste 13 Noroeste 0 -- -- 81
2018-02-10 21:00:00 3.8 7 Norte 14 Norte 0 -- -- 79
2018-02-10 20:00:00 4.7 13 Norte 23 Norte 0 -- -- 74
2018-02-10 19:00:00 5.9 13 Norte 24 Noroeste 0 -- -- 68
2018-02-10 18:00:00 6.9 17 Norte 26 Norte 0 -- -- 59
2018-02-10 17:00:00 7.4 17 Norte 27 Noroeste 0 -- -- 59
2018-02-10 16:00:00 7.4 15 Noroeste 27 Noroeste 0 -- -- 60
2018-02-10 15:00:00 6.4 15 Norte 28 Norte 0 -- -- 61
2018-02-10 14:00:00 5.6 12 Norte 23 Norte 0 -- -- 66
2018-02-10 13:00:00 4.5 10 Norte 18 Norte 0 -- -- 76
2018-02-10 12:00:00 3.1 11 Norte 20 Norte 0 -- -- 80
2018-02-10 11:00:00 1.2 8 Norte 14 Norte 0 -- -- 93
2018-02-10 10:00:00 -0.7 6 Norte 13 Noroeste 0 -- -- 97
2018-02-10 09:00:00 -1.6 9 Norte 11 Norte 0 -- -- 96
2018-02-10 08:00:00 -1.6 5 Noroeste 12 Norte 0 -- -- 95
2018-02-10 07:00:00 -1.5 8 Norte 13 Norte 0 -- -- 94
2018-02-10 06:00:00 -0.8 8 Norte 13 Noroeste 0 -- -- 94
2018-02-10 05:00:00 0 9 Norte 13 Norte 0 -- -- 95
2018-02-10 04:00:00 0.1 8 Norte 13 Noroeste 0 -- -- 96
2018-02-10 03:00:00 0.4 7 Norte 17 Norte 0 -- -- 96
2018-02-10 02:00:00 0.9 9 Noroeste 15 Noroeste 0 -- -- 94
2018-02-10 01:00:00 1.7 7 Noroeste 14 Norte 0 -- -- 93
2018-02-10 00:00:00 2.3 7 Noroeste 12 Norte 0 -- -- 91
2018-02-09 23:00:00 2.5 5 Noroeste 10 Norte 0 -- -- 91
2018-02-09 22:00:00 3.5 7 Norte 13 Noroeste 0 -- -- 91
2018-02-09 21:00:00 3.9 6 Noroeste 10 Noroeste 0 -- -- 92
2018-02-09 20:00:00 4.6 3 Sudoeste 9 Sudeste 0 -- -- 94
2018-02-09 19:00:00 5 5 Sur 7 Sur 0 -- -- 92
2018-02-09 18:00:00 5.7 4 Sudeste 9 Sudeste 0 -- -- 91
2018-02-09 17:00:00 5.8 5 Nordeste 14 Norte 0 -- -- 93
2018-02-09 16:00:00 4.9 7 Norte 16 Norte 0 -- -- 97
2018-02-09 15:00:00 4.1 10 Norte 17 Oeste 0 -- -- 97
2018-02-09 14:00:00 3.4 5 Norte 16 Norte 0 -- -- 98
2018-02-09 13:00:00 3.2 8 Norte 18 Norte 0 -- -- 98
2018-02-09 12:00:00 2.8 7 Norte 15 Noroeste 0 -- -- 97
2018-02-09 11:00:00 0.6 5 Sudeste 9 Sudeste 0 -- -- 97
2018-02-09 10:00:00 0.2 6 Sudeste 9 Sudeste 0.2 -- -- 96
2018-02-09 09:00:00 -0.4 3 Sur 6 Sur 0.2 -- -- 95
2018-02-09 08:00:00 -0.6 5 Sur 10 Sudeste 0.2 -- -- 94
2018-02-09 07:00:00 -0.7 6 Sur 10 Sur 1 -- -- 92
2018-02-09 06:00:00 -0.9 6 Sur 11 Sur 1 -- -- 89
2018-02-09 05:00:00 -1.3 7 Sur 11 Sur 0 -- -- 81
2018-02-09 04:00:00 -1.9 9 Sur 13 Sur 0 -- -- 79
2018-02-09 03:00:00 -2.5 10 Sur 13 Sur 0 -- -- 82
2018-02-09 02:00:00 -3.3 11 Sur 13 Sur 0 -- -- 84
2018-02-09 01:00:00 -2.9 10 Sur 12 Sur 0 -- -- 82
2018-02-09 00:00:00 -2.4 5 Sudoeste 9 Sur 0 -- -- 77
2018-02-08 23:00:00 -2.2 9 Sur 10 Sur 0 -- -- 78
2018-02-08 22:00:00 -0.8 3 Sur 5 Noroeste 0 -- -- 69
2018-02-08 21:00:00 -0.2 3 Norte 8 Nordeste 0 -- -- 66
2018-02-08 20:00:00 0.6 0 Calma 9 Nordeste 0 -- -- 63
2018-02-08 19:00:00 2.2 7 Nordeste 14 Nordeste 0 -- -- 58
2018-02-08 18:00:00 3.7 9 Nordeste 21 Nordeste 0 -- -- 53
2018-02-08 17:00:00 4.2 12 Norte 26 Nordeste 0 -- -- 52
2018-02-08 16:00:00 4.1 17 Norte 29 Norte 0 -- -- 51
2018-02-08 15:00:00 4 15 Norte 27 Nordeste 0 -- -- 54
2018-02-08 14:00:00 3.4 16 Nordeste 29 Nordeste 0 -- -- 56
2018-02-08 13:00:00 2.4 18 Norte 27 Nordeste 0 -- -- 60
2018-02-08 12:00:00 1.4 15 Norte 26 Norte 0 -- -- 71
2018-02-08 11:00:00 -1.8 11 Norte 17 Norte 0 -- -- 88
2018-02-08 10:00:00 -3.7 10 Norte 15 Norte 0 -- -- 93
2018-02-08 09:00:00 -5.1 8 Norte 14 Noroeste 0 -- -- 93
2018-02-08 08:00:00 -5.3 4 Norte 11 Norte 0 -- -- 92
2018-02-08 07:00:00 -5.1 6 Norte 13 Norte 0 -- -- 91
2018-02-08 06:00:00 -4.7 6 Norte 22 Nordeste 0 -- -- 89
2018-02-08 05:00:00 -3.8 12 Norte 18 Norte 0 -- -- 89
2018-02-08 04:00:00 -3.5 9 Norte 15 Nordeste 0 -- -- 87
2018-02-08 03:00:00 -3.9 8 Norte 14 Nordeste 0 -- -- 86
2018-02-08 02:00:00 -3.4 5 Norte 17 Norte 0 -- -- 84
2018-02-08 01:00:00 -2.4 9 Norte 17 Nordeste 0 -- -- 79
2018-02-08 00:00:00 -2.1 9 Norte 15 Norte 0 -- -- 79
2018-02-07 23:00:00 -1.8 6 Norte 10 Norte 0 -- -- 76
2018-02-07 22:00:00 -1.1 5 Norte 10 Este 0 -- -- 72
2018-02-07 21:00:00 -0.4 6 Nordeste 16 Nordeste 0 -- -- 69
2018-02-07 20:00:00 0.3 10 Este 19 Este 0 -- -- 67
2018-02-07 19:00:00 1.8 12 Nordeste 33 Nordeste 0 -- -- 64
2018-02-07 18:00:00 3.4 21 Nordeste 32 Norte 0 -- -- 57
2018-02-07 17:00:00 3.5 21 Nordeste 33 Norte 0 -- -- 56
2018-02-07 16:00:00 3.7 22 Nordeste 37 Norte 0 -- -- 55
2018-02-07 15:00:00 3.4 18 Nordeste 31 Nordeste 0 -- -- 58
2018-02-07 14:00:00 3.3 18 Nordeste 32 Nordeste 0 -- -- 59
2018-02-07 13:00:00 2.1 15 Norte 31 Nordeste 0 -- -- 69
2018-02-07 12:00:00 1.3 18 Norte 27 Norte 0 -- -- 74
2018-02-07 11:00:00 -0.8 12 Norte 21 Nordeste 0 -- -- 83
2018-02-07 10:00:00 -3 10 Norte 15 Norte 0 -- -- 89
2018-02-07 09:00:00 -4.3 8 Norte 14 Norte 0 -- -- 89
2018-02-07 08:00:00 -4.5 7 Norte 13 Norte 0 -- -- 88
2018-02-07 07:00:00 -3.9 9 Norte 12 Norte 0 -- -- 89
2018-02-07 06:00:00 -4.5 5 Norte 8 Norte 0 -- -- 87
2018-02-07 05:00:00 -4.1 5 Norte 8 Norte 0 -- -- 86
2018-02-07 04:00:00 -3.6 8 Norte 12 Norte 0 -- -- 85
2018-02-07 03:00:00 -3.2 6 Norte 10 Noroeste 0 -- -- 83
2018-02-07 02:00:00 -3.5 5 Norte 6 Norte 0 -- -- 83
2018-02-07 01:00:00 -2.6 3 Norte 13 Nordeste 0 -- -- 79
2018-02-07 00:00:00 -1.6 8 Nordeste 14 Nordeste 0 -- -- 77
2018-02-06 23:00:00 -1.1 9 Nordeste 13 Nordeste 0 -- -- 76
2018-02-06 22:00:00 -0.9 4 Norte 9 Norte 0 -- -- 74
2018-02-06 21:00:00 0.9 9 Norte 17 Nordeste 0 -- -- 66
2018-02-06 20:00:00 1.6 10 Nordeste 19 Este 0 -- -- 64
2018-02-06 19:00:00 2 10 Nordeste 19 Norte 0 -- -- 62
2018-02-06 18:00:00 2.7 10 Norte 28 Nordeste 0 -- -- 59
2018-02-06 17:00:00 3 17 Norte 30 Nordeste 0 -- -- 55
2018-02-06 16:00:00 3.4 21 Nordeste 39 Nordeste 0 -- -- 54
2018-02-06 15:00:00 3.2 21 Nordeste 40 Norte 0 -- -- 58
2018-02-06 14:00:00 2.5 24 Nordeste 42 Nordeste 0 -- -- 61
2018-02-06 13:00:00 2 21 Nordeste 42 Nordeste 0 -- -- 66
2018-02-06 12:00:00 1 23 Nordeste 37 Nordeste 0 -- -- 70
2018-02-06 11:00:00 -0.8 15 Nordeste 28 Nordeste 0 -- -- 75
2018-02-06 10:00:00 -2.7 12 Norte 19 Norte 0 -- -- 81
2018-02-06 09:00:00 -3.6 13 Norte 21 Norte 0 -- -- 83
2018-02-06 08:00:00 -3.3 11 Norte 21 Norte 0 -- -- 80
2018-02-06 07:00:00 -2.5 14 Norte 23 Norte 0 -- -- 76
2018-02-06 06:00:00 -2 7 Norte 23 Norte 0 -- -- 76
2018-02-06 05:00:00 -1.4 16 Nordeste 32 Nordeste 0 -- -- 71
2018-02-06 04:00:00 -0.8 18 Norte 35 Norte 0 -- -- 70
2018-02-06 03:00:00 -0.5 17 Norte 27 Norte 0 -- -- 75
2018-02-06 02:00:00 -0.3 14 Norte 24 Norte 0 -- -- 81
2018-02-06 01:00:00 -0.4 9 Norte 24 Nordeste 0 -- -- 92
2018-02-06 00:00:00 0 15 Nordeste 27 Norte 0 -- -- 91
2018-02-05 23:00:00 0.2 17 Norte 31 Nordeste 0 -- -- 92
2018-02-05 22:00:00 0.2 19 Nordeste 32 Nordeste 0 -- -- 94
2018-02-05 21:00:00 0.4 17 Nordeste 43 Nordeste 0 -- -- 92
2018-02-05 20:00:00 1.5 21 Nordeste 35 Nordeste 0 -- -- 83
2018-02-05 19:00:00 2.9 14 Nordeste 40 Nordeste 0 -- -- 75
2018-02-05 18:00:00 4.3 15 Norte 34 Norte 0 -- -- 64
2018-02-05 17:00:00 4.5 19 Nordeste 37 Nordeste 0 -- -- 67
2018-02-05 16:00:00 4.1 18 Nordeste 39 Nordeste 0 -- -- 68
2018-02-05 15:00:00 4.6 24 Nordeste 53 Nordeste 0 -- -- 65
2018-02-05 14:00:00 4 24 Nordeste 47 Norte 0 -- -- 71
2018-02-05 13:00:00 3.3 29 Norte 48 Nordeste 0 -- -- 73
2018-02-05 12:00:00 2.6 17 Norte 27 Norte 0 -- -- 83
2018-02-05 11:00:00 0.8 9 Norte 18 Norte 0 -- -- 89
2018-02-05 10:00:00 -0.6 11 Norte 15 Norte 0 -- -- 92
2018-02-05 09:00:00 -1.2 8 Norte 13 Noroeste 0 -- -- 92
2018-02-05 08:00:00 -1.1 10 Norte 17 Noroeste 0 -- -- 91
2018-02-05 07:00:00 -0.9 10 Norte 17 Norte 0 -- -- 91
2018-02-05 06:00:00 -0.9 9 Norte 15 Norte 0 -- -- 90
2018-02-05 05:00:00 -1.1 9 Norte 15 Norte 0 -- -- 89
2018-02-05 04:00:00 -1.5 6 Norte 13 Norte 0 -- -- 90
2018-02-05 03:00:00 -1.7 8 Norte 11 Norte 0 -- -- 90
2018-02-05 02:00:00 -1.7 9 Norte 12 Norte 0 -- -- 88
2018-02-05 01:00:00 -0.8 8 Norte 14 Norte 0 -- -- 85
2018-02-05 00:00:00 -0.2 7 Norte 12 Norte 0 -- -- 81
2018-02-04 23:00:00 0.6 8 Norte 14 Norte 0 -- -- 78
2018-02-04 22:00:00 1.5 10 Norte 17 Norte 0 -- -- 83
2018-02-04 21:00:00 1.6 6 Norte 12 Norte 0 -- -- 77
2018-02-04 20:00:00 2.1 5 Norte 10 Nordeste 0 -- -- 73
2018-02-04 19:00:00 3.6 6 Norte 21 Nordeste 0 -- -- 68
2018-02-04 18:00:00 4.4 13 Nordeste 27 Norte 0 -- -- 63
2018-02-04 17:00:00 4.4 15 Nordeste 30 Nordeste 0 -- -- 62
2018-02-04 16:00:00 5.1 21 Nordeste 31 Nordeste 0 -- -- 58
2018-02-04 15:00:00 3.5 21 Nordeste 34 Nordeste 0 -- -- 67
2018-02-04 14:00:00 3.9 23 Nordeste 36 Norte 0 -- -- 65
2018-02-04 13:00:00 3.1 20 Norte 35 Norte 0 -- -- 73
2018-02-04 12:00:00 2.2 16 Norte 26 Norte 0 -- -- 92
2018-02-04 11:00:00 0.2 19 Norte 28 Norte 0 -- -- 97
2018-02-04 10:00:00 -0.8 9 Norte 16 Norte 0 -- -- 97
2018-02-04 09:00:00 -1.1 8 Norte 21 Norte 0 -- -- 97
2018-02-04 08:00:00 -0.9 15 Norte 22 Norte 0 -- -- 97
2018-02-04 07:00:00 0 12 Norte 23 Noroeste 0 -- -- 96
2018-02-04 06:00:00 0.4 5 Norte 14 Norte 0 -- -- 97
2018-02-04 05:00:00 0.5 13 Noroeste 24 Noroeste 0 -- -- 97
2018-02-04 04:00:00 1.3 17 Noroeste 27 Noroeste 0 -- -- 97
2018-02-04 03:00:00 1.8 15 Noroeste 46 Noroeste 0.8 -- -- 97
2018-02-04 02:00:00 2.9 16 Noroeste 25 Noroeste 0 -- -- 97
2018-02-04 01:00:00 3.1 15 Noroeste 27 Oeste 0 -- -- 97
2018-02-04 00:00:00 3.1 19 Noroeste 30 Noroeste 0 -- -- 97
2018-02-03 23:00:00 3.7 21 Noroeste 34 Noroeste 0 -- -- 97
2018-02-03 22:00:00 4.1 18 Noroeste 30 Oeste 0 -- -- 96
2018-02-03 21:00:00 4.7 10 Norte 19 Noroeste 1.6 -- -- 95
2018-02-03 20:00:00 5 3 Sudeste 8 Oeste 0.4 -- -- 93
2018-02-03 19:00:00 5.3 9 Oeste 20 Sudoeste 0 -- -- 89
2018-02-03 18:00:00 6.3 14 Oeste 20 Oeste 0 -- -- 81
2018-02-03 17:00:00 6.8 12 Oeste 24 Oeste 0 -- -- 76
2018-02-03 16:00:00 7.3 14 Oeste 22 Oeste 0 -- -- 69
2018-02-03 15:00:00 6.9 13 Noroeste 24 Oeste 0 -- -- 68
2018-02-03 14:00:00 6 8 Noroeste 16 Sudoeste 0 -- -- 70
2018-02-03 13:00:00 4.9 6 Oeste 17 Noroeste 0 -- -- 71
2018-02-03 12:00:00 3 5 Norte 13 Noroeste 0 -- -- 76
2018-02-03 11:00:00 1.4 3 Sudeste 11 Sur 0 -- -- 82
2018-02-03 10:00:00 -2.1 8 Sur 13 Sur 0 -- -- 92
2018-02-03 09:00:00 -4.5 9 Sur 14 Sur 0 -- -- 90
2018-02-03 08:00:00 -4 6 Sur 13 Sur 0 -- -- 90
2018-02-03 07:00:00 -3.5 9 Sur 13 Sur 0 -- -- 87
2018-02-03 06:00:00 -3.1 4 Oeste 8 Sur 0 -- -- 88
2018-02-03 05:00:00 -3.8 7 Sur 11 Sur 0 -- -- 87
2018-02-03 04:00:00 -2 6 Norte 12 Noroeste 0 -- -- 82
2018-02-03 03:00:00 -1.9 6 Noroeste 10 Noroeste 0 -- -- 81
2018-02-03 02:00:00 -2.6 5 Noroeste 7 Norte 0 -- -- 83
2018-02-03 01:00:00 -2 2 Este 6 Norte 0 -- -- 80
2018-02-03 00:00:00 -0.9 5 Norte 10 Noroeste 0 -- -- 79
2018-02-02 23:00:00 0 5 Norte 13 Noroeste 0 -- -- 75
2018-02-02 22:00:00 0.9 8 Noroeste 17 Noroeste 0 -- -- 72
2018-02-02 21:00:00 1.9 9 Noroeste 18 Norte 0 -- -- 69
2018-02-02 20:00:00 3.4 13 Noroeste 18 Noroeste 0 -- -- 62
2018-02-02 19:00:00 3.5 8 Noroeste 24 Noroeste 0 -- -- 60
2018-02-02 18:00:00 5.3 20 Norte 32 Norte 0 -- -- 52
2018-02-02 17:00:00 5.4 13 Norte 26 Norte 0 -- -- 54
2018-02-02 16:00:00 5.6 14 Norte 29 Norte 0 -- -- 52
2018-02-02 15:00:00 5.3 14 Norte 30 Norte 0 -- -- 55
2018-02-02 14:00:00 4.8 15 Norte 30 Norte 0 -- -- 61
2018-02-02 13:00:00 3.8 11 Norte 21 Norte 0 -- -- 67
2018-02-02 12:00:00 1.7 11 Norte 18 Norte 0 -- -- 81
2018-02-02 11:00:00 -0.3 9 Norte 14 Norte 0 -- -- 92
2018-02-02 10:00:00 -2 6 Norte 10 Norte 0 -- -- 96
2018-02-02 09:00:00 -2.9 6 Norte 15 Norte 0 -- -- 95
2018-02-02 08:00:00 -2.8 9 Norte 12 Norte 0 -- -- 96
2018-02-02 07:00:00 -2.7 8 Norte 11 Noroeste 0 -- -- 95
2018-02-02 06:00:00 -2.3 7 Norte 10 Norte 0 -- -- 95
2018-02-02 05:00:00 -2.3 6 Norte 10 Noroeste 0 -- -- 94
2018-02-02 04:00:00 -2 8 Norte 15 Norte 0 -- -- 93
2018-02-02 03:00:00 -1.5 6 Norte 18 Norte 0 -- -- 91
2018-02-02 02:00:00 -1 11 Noroeste 19 Noroeste 0 -- -- 89
2018-02-02 01:00:00 -0.7 14 Noroeste 21 Noroeste 0 -- -- 88
2018-02-02 00:00:00 -0.3 12 Noroeste 22 Noroeste 0 -- -- 85
2018-02-01 23:00:00 0.1 12 Noroeste 23 Noroeste 0 -- -- 82
2018-02-01 22:00:00 0.9 14 Noroeste 26 Noroeste 0 -- -- 80
2018-02-01 21:00:00 1.9 17 Noroeste 32 Noroeste 0 -- -- 77
2018-02-01 20:00:00 2.9 21 Noroeste 30 Noroeste 0 -- -- 77
2018-02-01 19:00:00 3.6 24 Noroeste 42 Noroeste 0 -- -- 75
2018-02-01 18:00:00 5.5 30 Noroeste 51 Norte 0 -- -- 64
2018-02-01 17:00:00 6.4 34 Noroeste 49 Norte 0 -- -- 61
2018-02-01 16:00:00 6.7 30 Norte 50 Noroeste 0 -- -- 57
2018-02-01 15:00:00 7.6 35 Noroeste 50 Norte 0 -- -- 59
2018-02-01 14:00:00 7.2 32 Noroeste 48 Noroeste 0 -- -- 61
2018-02-01 13:00:00 6.7 28 Noroeste 41 Noroeste 0 -- -- 71
2018-02-01 12:00:00 5.8 28 Norte 39 Norte 0 -- -- 75
2018-02-01 11:00:00 4.7 19 Noroeste 28 Noroeste 0 -- -- 94
2018-02-01 10:00:00 3.3 13 Norte 18 Norte 0 -- -- 93
2018-02-01 09:00:00 3.5 14 Noroeste 20 Noroeste 0 -- -- 93
2018-02-01 08:00:00 2 5 Noroeste 8 Noroeste 0 -- -- 88
2018-02-01 07:00:00 2.8 4 Oeste 14 Norte 0 -- -- 85
2018-02-01 06:00:00 1.4 6 Norte 9 Noroeste 0 -- -- 87
2018-02-01 05:00:00 0.1 4 Sur 12 Sur 0 -- -- 84
2018-02-01 04:00:00 0.2 10 Sur 14 Sur 0 -- -- 83
2018-02-01 03:00:00 -0.5 10 Sur 14 Sur 0 -- -- 84
2018-02-01 02:00:00 2.2 5 Sudoeste 13 Sudoeste 0 -- -- 74
2018-02-01 01:00:00 1.8 10 Sur 13 Sudeste 0 -- -- 74
2018-02-01 00:00:00 0.9 10 Sur 19 Sur 0 -- -- 79
2018-01-31 23:00:00 2.9 10 Sur 12 Sur 0 -- -- 72
2018-01-31 22:00:00 6.3 3 Noroeste 7 Noroeste 0 -- -- 59
2018-01-31 21:00:00 7.1 4 Norte 9 Norte 0 -- -- 56
2018-01-31 20:00:00 8.4 7 Norte 11 Norte 0 -- -- 52
2018-01-31 19:00:00 9.6 4 Noroeste 15 Noroeste 0 -- -- 45
2018-01-31 18:00:00 12.4 11 Noroeste 17 Noroeste 0 -- -- 37
2018-01-31 17:00:00 13.2 6 Norte 14 Norte 0 -- -- 37
2018-01-31 16:00:00 13.2 9 Norte 17 Norte 0 -- -- 37
2018-01-31 15:00:00 11.9 9 Norte 14 Norte 0 -- -- 46
2018-01-31 14:00:00 10.8 9 Norte 12 Norte 0 -- -- 52
2018-01-31 13:00:00 9.2 4 Noroeste 9 Norte 0 -- -- 68
2018-01-31 12:00:00 6.5 8 Norte 19 Norte 0 -- -- 81
2018-01-31 11:00:00 3.4 9 Sur 13 Sur 0 -- -- 90
2018-01-31 10:00:00 -0.5 8 Sur 14 Sudeste 0 -- -- 94
2018-01-31 09:00:00 -2.7 11 Sur 14 Sur 0 -- -- 92
2018-01-31 08:00:00 -1.2 6 Sur 9 Sur 0 -- -- 94
2018-01-31 07:00:00 -2.2 12 Sur 17 Sur 0 -- -- 93
2018-01-31 06:00:00 -1.8 8 Sur 16 Sudeste 0 -- -- 91
2018-01-31 05:00:00 -0.6 8 Sur 17 Sudeste 0 -- -- 94
2018-01-31 04:00:00 -1.5 14 Sur 19 Sur 0 -- -- 92
2018-01-31 03:00:00 -0.2 13 Sur 15 Sur 0 -- -- 91
2018-01-31 02:00:00 0.7 6 Sur 15 Sur 0 -- -- 92
2018-01-31 01:00:00 0 13 Sur 16 Sur 0 -- -- 91
2018-01-31 00:00:00 1.8 9 Sur 13 Sudeste 0 -- -- 89
2018-01-30 23:00:00 3.1 5 Sudoeste 15 Sur 0 -- -- 88
2018-01-30 22:00:00 4.7 4 Sur 10 Sudeste 0 -- -- 81
2018-01-30 21:00:00 6.6 0 Calma 7 Norte 0 -- -- 78
2018-01-30 20:00:00 8.3 6 Norte 10 Norte 0 -- -- 72
2018-01-30 19:00:00 10.3 3 Noroeste 10 Norte 0 -- -- 64
2018-01-30 18:00:00 12.6 5 Norte 10 Norte 0 -- -- 56
2018-01-30 17:00:00 12.6 4 Norte 11 Norte 0 -- -- 56
2018-01-30 16:00:00 11.6 6 Norte 13 Norte 0 -- -- 61
2018-01-30 15:00:00 10.5 8 Norte 16 Norte 0 -- -- 64
2018-01-30 14:00:00 9.3 9 Norte 15 Norte 0 -- -- 79
2018-01-30 13:00:00 7.5 7 Norte 12 Norte 0 -- -- 84
2018-01-30 12:00:00 6.2 4 Norte 8 Norte 0 -- -- 88
2018-01-30 11:00:00 3.7 0 Calma 5 Sur 0 -- -- 95
2018-01-30 10:00:00 -- 0 Calma 10 Sur 0 -- -- --
2018-01-30 09:00:00 -2.5 11 Sur 18 Sur 0 -- -- 96
2018-01-30 08:00:00 -2.3 11 Sur 15 Sur 0 -- -- 96
2018-01-30 07:00:00 -1 6 Sur 13 Sur 0 -- -- 97
2018-01-30 06:00:00 -1.4 10 Sur 16 Sur 0 -- -- 95
2018-01-30 05:00:00 -0.1 3 Norte 9 Sur 0 -- -- 95
2018-01-30 04:00:00 0.3 5 Sur 14 Sur 0 -- -- 95
2018-01-30 03:00:00 0.1 6 Sudeste 17 Sur 0 -- -- 95
2018-01-30 02:00:00 1.4 6 Sur 9 Sur 0 -- -- 91
2018-01-30 01:00:00 2 6 Sudeste 13 Sur 0 -- -- 91
2018-01-30 00:00:00 2.8 9 Sur 15 Sur 0 -- -- 91
2018-01-29 23:00:00 3.4 10 Sur 13 Sur 0 -- -- 88
2018-01-29 22:00:00 4.6 7 Sur 10 Sur 0 -- -- 83
2018-01-29 21:00:00 6.6 6 Norte 11 Nordeste 0 -- -- 78
2018-01-29 20:00:00 7.8 6 Nordeste 14 Norte 0 -- -- 73
2018-01-29 19:00:00 9.9 11 Norte 18 Nordeste 0 -- -- 67
2018-01-29 18:00:00 11.9 13 Nordeste 23 Norte 0 -- -- 63
2018-01-29 17:00:00 13.2 13 Norte 21 Norte 0 -- -- 58
2018-01-29 16:00:00 13.1 11 Norte 18 Norte 0 -- -- 57
2018-01-29 15:00:00 11.7 7 Norte 13 Norte 0 -- -- 65
2018-01-29 14:00:00 10.2 6 Norte 12 Norte 0 -- -- 69
2018-01-29 13:00:00 8.1 7 Norte 12 Norte 0 -- -- 79
2018-01-29 12:00:00 5.4 4 Norte 12 Nordeste 0 -- -- 87
2018-01-29 11:00:00 4 4 Sur 8 Sudeste 0 -- -- 94
2018-01-29 10:00:00 0.4 4 Sur 6 Sur 0 -- -- 97
2018-01-29 09:00:00 -1.8 3 Sudoeste 14 Sur 0 -- -- 95
2018-01-29 08:00:00 -0.9 6 Sur 12 Sur 0 -- -- 94
2018-01-29 07:00:00 -0.5 2 Oeste 12 Sur 0 -- -- 95
2018-01-29 06:00:00 -0.2 6 Sur 16 Sur 0 -- -- 93
2018-01-29 05:00:00 0.7 6 Sudoeste 13 Sur 0 -- -- 94
2018-01-29 04:00:00 0.8 8 Sur 14 Sur 0 -- -- 89
2018-01-29 03:00:00 2.8 5 Noroeste 6 Noroeste 0 -- -- 87
2018-01-29 02:00:00 3.5 4 Oeste 12 Sudoeste 0 -- -- 83
2018-01-29 01:00:00 4.5 6 Sudoeste 21 Nordeste 0 -- -- 79
2018-01-29 00:00:00 5.7 15 Este 20 Nordeste 0 -- -- 77
2018-01-28 23:00:00 5.8 14 Este 19 Nordeste 0 -- -- 78
2018-01-28 22:00:00 6.1 6 Nordeste 20 Nordeste 0 -- -- 78
2018-01-28 21:00:00 7 10 Nordeste 15 Este 0 -- -- 76
2018-01-28 20:00:00 7.3 11 Este 15 Este 0 -- -- 75
2018-01-28 19:00:00 8.4 7 Nordeste 28 Nordeste 0 -- -- 69
2018-01-28 18:00:00 9.8 14 Nordeste 39 Nordeste 0 -- -- 64
2018-01-28 17:00:00 9.9 16 Nordeste 46 Nordeste 0 -- -- 63
2018-01-28 16:00:00 9.9 24 Nordeste 48 Norte 0 -- -- 60
2018-01-28 15:00:00 9.4 26 Nordeste 45 Nordeste 0 -- -- 62
2018-01-28 14:00:00 8.5 22 Norte 36 Norte 0 -- -- 63
2018-01-28 13:00:00 7.4 14 Norte 28 Nordeste 0 -- -- 66
2018-01-28 12:00:00 5.1 11 Norte 20 Norte 0 -- -- 73
2018-01-28 11:00:00 1.3 8 Norte 16 Norte 0 -- -- 86
2018-01-28 10:00:00 -0.9 8 Norte 23 Norte 0 -- -- 93
2018-01-28 09:00:00 -1.5 13 Norte 21 Norte 0 -- -- 92
2018-01-28 08:00:00 -1.4 14 Norte 26 Norte 0 -- -- 92
2018-01-28 07:00:00 -1.3 14 Norte 25 Norte 0 -- -- 92
2018-01-28 06:00:00 -1.2 14 Norte 25 Norte 0 -- -- 90
2018-01-28 05:00:00 -0.6 7 Nordeste 23 Norte 0 -- -- 88
2018-01-28 04:00:00 0 12 Norte 21 Norte 0 -- -- 85
2018-01-28 03:00:00 1.2 12 Nordeste 27 Nordeste 0 -- -- 80
2018-01-28 02:00:00 1.2 11 Norte 30 Nordeste 0 -- -- 79
2018-01-28 01:00:00 2.7 16 Nordeste 39 Nordeste 0 -- -- 73
2018-01-28 00:00:00 3.8 23 Nordeste 39 Nordeste 0 -- -- 68
2018-01-27 23:00:00 3.6 13 Nordeste 27 Este 0 -- -- 71
2018-01-27 22:00:00 4.2 15 Nordeste 27 Nordeste 0 -- -- 73
2018-01-27 21:00:00 4.7 12 Nordeste 23 Nordeste 0 -- -- 73
2018-01-27 20:00:00 5.5 14 Nordeste 27 Nordeste 0 -- -- 72
2018-01-27 19:00:00 5.9 11 Nordeste 28 Nordeste 0 -- -- 70
2018-01-27 18:00:00 6.9 18 Nordeste 34 Nordeste 0 -- -- 64
2018-01-27 17:00:00 7.7 17 Norte 37 Nordeste 0 -- -- 63
2018-01-27 16:00:00 7.8 23 Nordeste 37 Nordeste 0 -- -- 61
2018-01-27 15:00:00 7.3 19 Nordeste 35 Nordeste 0 -- -- 67
2018-01-27 14:00:00 6.3 15 Nordeste 24 Nordeste 0 -- -- 75
2018-01-27 13:00:00 4 10 Norte 18 Norte 0 -- -- 88
2018-01-27 12:00:00 2.7 11 Norte 16 Norte 0 -- -- 95
2018-01-27 11:00:00 1.7 7 Norte 11 Norte 0 -- -- 98
2018-01-27 10:00:00 0.1 2 Noroeste 6 Este 0 -- -- 98
2018-01-27 09:00:00 -0.2 3 Este 10 Noroeste 0 -- -- 97
2018-01-27 08:00:00 -0.1 6 Noroeste 12 Noroeste 0 -- -- 97
2018-01-27 07:00:00 -- -- -- -- -- -- -- -- --
2018-01-27 06:00:00 -- -- -- -- -- -- -- -- --
2018-01-27 05:00:00 -- -- -- -- -- -- -- -- --
2018-01-27 04:00:00 -0.1 5 Norte 17 Norte 0 -- -- 95
2018-01-27 03:00:00 0.2 8 Norte 13 Norte -- -- -- 95
2018-01-27 02:00:00 0.4 4 Nordeste 13 Norte 0 -- -- 95
2018-01-27 01:00:00 0.5 6 Norte 12 Norte 0 -- -- 94
2018-01-27 00:00:00 1 7 Norte 15 Noroeste 0 -- -- 93
2018-01-26 23:00:00 1.6 11 Norte 19 Norte 0 -- -- 92
2018-01-26 22:00:00 2.2 10 Norte 23 Noroeste 0 -- -- 90
2018-01-26 21:00:00 2.5 14 Noroeste 26 Norte 0 -- -- 87
2018-01-26 20:00:00 3.3 16 Noroeste 28 Noroeste 0 -- -- 83
2018-01-26 19:00:00 4.3 19 Noroeste 33 Noroeste 0 -- -- 77
2018-01-26 18:00:00 5.1 23 Noroeste 40 Noroeste 0 -- -- 73
2018-01-26 17:00:00 6 21 Noroeste 37 Noroeste 0 -- -- 71
2018-01-26 16:00:00 6.1 25 Noroeste 36 Noroeste 0 -- -- 70
2018-01-26 15:00:00 6.3 23 Norte 40 Noroeste 0 -- -- 72
2018-01-26 14:00:00 5.6 24 Noroeste 39 Noroeste 0 -- -- 73
2018-01-26 13:00:00 4.9 22 Norte 43 Noroeste 0 -- -- 80
2018-01-26 12:00:00 4 27 Noroeste 46 Noroeste 0 -- -- 86
2018-01-26 11:00:00 2.8 27 Noroeste 37 Noroeste 0 -- -- 93
2018-01-26 10:00:00 0.8 10 Noroeste 17 Noroeste 0 -- -- 98
2018-01-26 09:00:00 0 9 Norte 14 Noroeste 0 -- -- 97
2018-01-26 08:00:00 0.7 12 Norte 23 Noroeste 0 -- -- 97
2018-01-26 07:00:00 0.7 18 Noroeste 27 Noroeste 0 -- -- 97
2018-01-26 06:00:00 0.6 14 Noroeste 23 Noroeste 0 -- -- 97
2018-01-26 05:00:00 0.3 10 Noroeste 18 Noroeste 0 -- -- 96
2018-01-26 04:00:00 0.8 8 Noroeste 26 Noroeste 0 -- -- 96
2018-01-26 03:00:00 0.3 13 Noroeste 20 Noroeste 0 -- -- 98
2018-01-26 02:00:00 0.4 8 Norte 19 Noroeste 0 -- -- 97
2018-01-26 01:00:00 0.7 14 Noroeste 24 Noroeste 0 -- -- 97
2018-01-26 00:00:00 0.9 15 Noroeste 26 Noroeste 0 -- -- 97
2018-01-25 23:00:00 1.4 13 Noroeste 31 Noroeste 0 -- -- 97
2018-01-25 22:00:00 1.9 20 Noroeste 41 Norte 0 -- -- 97
2018-01-25 21:00:00 2.1 18 Noroeste 30 Noroeste 0 -- -- 96
2018-01-25 20:00:00 2.5 21 Noroeste 30 Noroeste 0.2 -- -- 97
2018-01-25 19:00:00 2.6 15 Noroeste 31 Norte 0 -- -- 96
2018-01-25 18:00:00 3.4 23 Noroeste 43 Noroeste 0 -- -- 95
2018-01-25 17:00:00 4 19 Oeste 43 Noroeste 0.6 -- -- 95
2018-01-25 16:00:00 6.4 18 Oeste 31 Oeste 0 -- -- 86
2018-01-25 15:00:00 6.4 19 Oeste 28 Oeste 0 -- -- 93
2018-01-25 14:00:00 6.3 16 Oeste 31 Sudoeste 0.2 -- -- 97
2018-01-25 13:00:00 6 14 Sudoeste 23 Sudoeste 0.2 -- -- 99
2018-01-25 12:00:00 5.5 14 Sudoeste 30 Sur 0.2 -- -- 99
2018-01-25 11:00:00 5.8 21 Sur 32 Sur 0 -- -- 99
2018-01-25 10:00:00 5.8 25 Sur 39 Sur 0.2 -- -- 100
2018-01-25 09:00:00 5.9 20 Sur 31 Sur 2.4 -- -- 100
2018-01-25 08:00:00 6 22 Sur 31 Sur 0.2 -- -- 100
2018-01-25 07:00:00 5.5 14 Sur 21 Sur 0 -- -- 100
2018-01-25 06:00:00 4.7 15 Sur 22 Sur 0 -- -- 100
2018-01-25 05:00:00 3.2 14 Sur 19 Sur 0 -- -- 100
2018-01-25 04:00:00 3.4 13 Sur 18 Sur 0 -- -- 100
2018-01-25 03:00:00 2.5 10 Sur 13 Sudeste 0 -- -- 100
2018-01-25 02:00:00 1.9 8 Sur 15 Sur 0 -- -- 100
2018-01-25 01:00:00 2.2 9 Sur 17 Sur 0 -- -- 100
2018-01-25 00:00:00 2.2 11 Sur 15 Sur 0 -- -- 100
2018-01-24 23:00:00 3.6 9 Sur 10 Sur 0 -- -- 100
2018-01-24 22:00:00 2.3 3 Sur 14 Sudeste 0 -- -- 100
2018-01-24 21:00:00 2.9 7 Sur 14 Sur 0 -- -- 100
2018-01-24 20:00:00 3.2 9 Sur 12 Sudeste 0 -- -- 100
2018-01-24 19:00:00 4.2 9 Sur 13 Sur 0 -- -- 100
2018-01-24 18:00:00 4.8 8 Sudeste 11 Sudeste 0 -- -- 100
2018-01-24 17:00:00 4.6 2 Sur 6 Noroeste 0 -- -- 100
2018-01-24 16:00:00 4.2 3 Norte 8 Norte 0 -- -- 100
2018-01-24 15:00:00 3.9 5 Norte 9 Noroeste 0 -- -- 100
2018-01-24 14:00:00 3.4 6 Norte 11 Noroeste 0 -- -- 100
2018-01-24 13:00:00 2.7 5 Norte 10 Noroeste 0 -- -- 100
2018-01-24 12:00:00 2.2 6 Norte 11 Noroeste 0 -- -- 100
2018-01-24 11:00:00 1.6 2 Norte 9 Norte 0 -- -- 100
2018-01-24 10:00:00 1.2 6 Norte 9 Norte 0 -- -- 100
2018-01-24 09:00:00 1.2 3 Noroeste 9 Norte 0 -- -- 100
2018-01-24 08:00:00 1 3 Noroeste 6 Norte 0 -- -- 100
2018-01-24 07:00:00 1.2 3 Este 6 Sudeste 0 -- -- 100
2018-01-24 06:00:00 1.8 3 Norte 6 Noroeste 0 -- -- 100
2018-01-24 05:00:00 2.4 3 Sudeste 8 Sudeste 0 -- -- 100
2018-01-24 04:00:00 3.4 4 Este 7 Este 0 -- -- 100
2018-01-24 03:00:00 3.6 3 Noroeste 7 Noroeste 0 -- -- 100
2018-01-24 02:00:00 3.9 4 Sur 11 Sudeste 0 -- -- 99
2018-01-24 01:00:00 4.4 3 Este 10 Norte 0 -- -- 100
2018-01-24 00:00:00 4.7 3 Nordeste 7 Nordeste 0 -- -- 100
2018-01-23 23:00:00 4.7 4 Norte 9 Este 0 -- -- 100
2018-01-23 22:00:00 4.8 4 Nordeste 10 Nordeste 0 -- -- 99
2018-01-23 21:00:00 5 4 Norte 12 Nordeste 0 -- -- 100
2018-01-23 20:00:00 5.1 2 Norte 9 Nordeste 0 -- -- 100
2018-01-23 19:00:00 5.1 4 Nordeste 12 Nordeste 0 -- -- 100
2018-01-23 18:00:00 5.1 3 Norte 17 Norte 0 -- -- 100
2018-01-23 17:00:00 4.6 7 Norte 14 Norte 0 -- -- 100
2018-01-23 16:00:00 3.9 8 Norte 13 Norte 0 -- -- 100
2018-01-23 15:00:00 3.8 6 Norte 9 Norte 0 -- -- 100
2018-01-23 14:00:00 3.6 6 Norte 10 Norte 0 -- -- 99
2018-01-23 13:00:00 2.9 4 Noroeste 6 Nordeste 0 -- -- 100
2018-01-23 12:00:00 2.1 6 Norte 9 Noroeste 0 -- -- 99
2018-01-23 11:00:00 1.6 0 Calma 6 Sur 0 -- -- 99
2018-01-23 10:00:00 1.2 3 Nordeste 9 Noroeste 0 -- -- 99
2018-01-23 09:00:00 1.1 6 Norte 9 Norte 0 -- -- 99
2018-01-23 08:00:00 0.7 2 Oeste 9 Sudeste 0 -- -- 99
2018-01-23 07:00:00 1 3 Sudeste 8 Sur 0 -- -- 98
2018-01-23 06:00:00 -0.5 8 Sur 13 Sur 0 -- -- 98
2018-01-23 05:00:00 -0.7 9 Sur 11 Sur 0 -- -- 97
2018-01-23 04:00:00 2.9 2 Nordeste 8 Norte 0 -- -- 97
2018-01-23 03:00:00 3.3 3 Oeste 9 Sur 0 -- -- 97
2018-01-23 02:00:00 2.8 8 Sur 13 Sudeste 0 -- -- 97
2018-01-23 01:00:00 4.4 4 Este 9 Nordeste 0 -- -- 93
2018-01-23 00:00:00 5.2 7 Nordeste 9 Nordeste 0 -- -- 95
2018-01-22 23:00:00 4.4 0 Calma 5 Sur 0 -- -- 94
2018-01-22 22:00:00 4.9 4 Sur 5 Sur 0 -- -- 92
2018-01-22 21:00:00 6.5 3 Norte 6 Norte 0 -- -- 89
2018-01-22 20:00:00 7.2 3 Norte 9 Noroeste 0 -- -- 86
2018-01-22 19:00:00 8.5 5 Norte 13 Noroeste 0 -- -- 82
2018-01-22 18:00:00 11 9 Norte 15 Noroeste 0 -- -- 75
2018-01-22 17:00:00 11.5 5 Norte 13 Nordeste 0 -- -- 74
2018-01-22 16:00:00 10.9 8 Norte 17 Nordeste 0 -- -- 77
2018-01-22 15:00:00 9.8 9 Norte 15 Norte 0 -- -- 81
2018-01-22 14:00:00 8.2 9 Norte 15 Norte 0 -- -- 88
2018-01-22 13:00:00 7 9 Norte 18 Norte 0 -- -- 92
2018-01-22 12:00:00 6.7 9 Norte 17 Norte 0 -- -- 93
2018-01-22 11:00:00 6.4 8 Norte 17 Noroeste 0 -- -- 96
2018-01-22 10:00:00 6.1 8 Norte 14 Norte 0 -- -- 98
2018-01-22 09:00:00 5.7 6 Norte 11 Norte 0 -- -- 98
2018-01-22 08:00:00 5.6 5 Norte 10 Norte 0 -- -- 98
2018-01-22 07:00:00 5.9 6 Norte 14 Nordeste 0 -- -- 98
2018-01-22 06:00:00 6.2 6 Nordeste 14 Norte 0 -- -- 98
2018-01-22 05:00:00 5.5 4 Nordeste 10 Nordeste 0 -- -- 98
2018-01-22 04:00:00 5.3 0 Calma 4 Norte 0 -- -- 97
2018-01-22 03:00:00 5.7 5 Nordeste 8 Norte 0 -- -- 97
2018-01-22 02:00:00 4.1 7 Sur 11 Sur 0 -- -- 97
2018-01-22 01:00:00 5.7 2 Oeste 4 Sur 0 -- -- 96
2018-01-22 00:00:00 5.3 4 Sur 6 Sudoeste 0 -- -- 95